Time;durP1;ratioP1;P1;durP2;ratioP2;P2;SDS_P1;SDS_P2;PMS_P1;PMS_P2;Temp;Humidity;BMP_temperature;BMP_pressure;BME280_temperature;BME280_humidity;BME280_pressure;Samples;Min_cycle;Max_cycle;Signal;HPM_P1;HPM_P2
2024/01/16 00:00:53;;;;;;;4.18;0.80;;;16.90;57.40;;;;;;4822214;29;20197;-84
2024/01/16 00:03:24;;;;;;;1.35;0.68;;;17.00;57.40;;;;;;4833197;29;20240;-85
2024/01/16 00:05:50;;;;;;;3.33;0.95;;;16.90;57.20;;;;;;4803082;29;20190;-84
2024/01/16 00:08:15;;;;;;;2.92;0.80;;;16.90;57.30;;;;;;4833808;29;20238;-84
2024/01/16 00:10:44;;;;;;;3.22;0.85;;;16.90;57.30;;;;;;4818825;29;20182;-85
2024/01/16 00:13:10;;;;;;;4.10;0.80;;;16.90;57.30;;;;;;4813280;29;20298;-85
2024/01/16 00:15:41;;;;;;;3.70;0.90;;;16.90;57.20;;;;;;4822459;29;20162;-85
2024/01/16 00:18:20;;;;;;;2.88;0.70;;;16.90;57.20;;;;;;4806932;29;20189;-85
2024/01/16 00:20:50;;;;;;;1.63;0.73;;;16.90;57.20;;;;;;4807662;29;20617;-85
2024/01/16 00:23:18;;;;;;;3.03;1.00;;;16.90;57.10;;;;;;4807030;29;20614;-84
2024/01/16 00:25:51;;;;;;;2.72;0.73;;;16.90;57.10;;;;;;4852262;29;20174;-84
2024/01/16 00:28:19;;;;;;;1.80;0.70;;;16.90;57.10;;;;;;4837600;29;20181;-84
2024/01/16 00:30:47;;;;;;;2.50;1.00;;;16.80;57.20;;;;;;4807159;29;20660;-84
2024/01/16 00:33:15;;;;;;;2.65;1.00;;;16.80;57.30;;;;;;4809325;29;20282;-84
2024/01/16 00:35:41;;;;;;;1.63;0.80;;;16.80;57.30;;;;;;4831342;29;20228;-84
2024/01/16 00:38:08;;;;;;;2.90;0.70;;;16.80;57.30;;;;;;4860299;29;20185;-84
2024/01/16 00:40:38;;;;;;;4.22;0.93;;;16.80;56.90;;;;;;4859496;29;20161;-85
2024/01/16 00:43:10;;;;;;;5.32;1.10;;;16.80;56.80;;;;;;4809586;29;20250;-84
2024/01/16 00:45:37;;;;;;;2.33;0.90;;;16.90;56.90;;;;;;4836824;29;20176;-85
2024/01/16 00:48:13;;;;;;;2.03;0.80;;;16.80;56.90;;;;;;4859237;29;20165;-83
2024/01/16 00:50:39;;;;;;;2.08;0.65;;;16.80;56.90;;;;;;4844297;29;20208;-84
2024/01/16 00:53:11;;;;;;;1.80;0.60;;;16.80;56.90;;;;;;4844077;29;20180;-84
2024/01/16 00:55:42;;;;;;;2.95;0.80;;;16.80;57.30;;;;;;4827670;29;20191;-85
2024/01/16 00:58:10;;;;;;;1.42;0.60;;;16.80;57.00;;;;;;4855839;29;20189;-85
2024/01/16 01:00:39;;;;;;;4.32;0.82;;;16.80;56.80;;;;;;4859029;29;20240;-85
2024/01/16 01:03:08;;;;;;;3.00;1.02;;;16.80;56.90;;;;;;4859070;29;20220;-85
2024/01/16 01:05:34;;;;;;;2.15;0.73;;;16.80;57.10;;;;;;4843326;29;20280;-84
2024/01/16 01:08:23;;;;;;;1.38;0.73;;;16.80;57.00;;;;;;4828857;29;20176;-84
2024/01/16 01:10:52;;;;;;;1.70;0.80;;;16.80;57.10;;;;;;4843063;29;20191;-84
2024/01/16 01:13:20;;;;;;;1.60;1.00;;;16.70;56.70;;;;;;4859068;29;20244;-85
2024/01/16 01:15:51;;;;;;;1.35;0.63;;;16.80;56.90;;;;;;4842917;29;20168;-84
2024/01/16 01:18:22;;;;;;;3.22;0.77;;;16.80;57.10;;;;;;4825575;29;20197;-85
2024/01/16 01:20:49;;;;;;;3.60;0.85;;;16.80;57.00;;;;;;4809975;29;20216;-85
2024/01/16 01:23:20;;;;;;;2.05;0.70;;;16.80;56.90;;;;;;4828798;29;20750;-84
2024/01/16 01:25:48;;;;;;;2.85;0.90;;;16.70;56.90;;;;;;4773778;29;20187;-83
2024/01/16 01:28:17;;;;;;;2.70;0.95;;;16.70;56.90;;;;;;4775261;29;20678;-85
2024/01/16 01:30:46;;;;;;;4.07;0.82;;;16.70;57.20;;;;;;4812302;29;20196;-84
2024/01/16 01:33:13;;;;;;;1.98;0.63;;;16.70;57.30;;;;;;4795659;29;20202;-84
2024/01/16 01:35:44;;;;;;;2.50;0.70;;;16.70;57.10;;;;;;4797767;29;20309;-84
2024/01/16 01:38:12;;;;;;;2.25;0.70;;;16.70;57.30;;;;;;4797131;29;20202;-85
2024/01/16 01:40:43;;;;;;;4.32;0.90;;;16.70;57.00;;;;;;4803811;29;20179;-84
2024/01/16 01:43:24;;;;;;;2.42;1.00;;;16.70;56.90;;;;;;4788592;29;20325;-84
2024/01/16 01:46:09;;;;;;;1.90;0.80;;;16.60;56.90;;;;;;4773915;30;20191;-84
2024/01/16 01:48:35;;;;;;;2.47;0.88;;;16.70;57.00;;;;;;4785433;30;20194;-84
2024/01/16 01:51:02;;;;;;;1.73;0.63;;;16.60;57.00;;;;;;4784506;30;20229;-85
2024/01/16 01:53:30;;;;;;;3.15;0.88;;;16.70;56.90;;;;;;4795860;29;20185;-84
2024/01/16 01:55:56;;;;;;;2.13;0.80;;;16.70;56.90;;;;;;4770520;30;20214;-84
2024/01/16 01:58:23;;;;;;;2.13;1.02;;;16.70;56.80;;;;;;4781859;30;20206;-85
2024/01/16 02:00:49;;;;;;;1.98;0.68;;;16.70;57.00;;;;;;4766111;30;20269;-84
2024/01/16 02:03:20;;;;;;;2.65;0.70;;;16.60;56.90;;;;;;4808871;29;20211;-84
2024/01/16 02:05:52;;;;;;;2.17;0.68;;;16.70;56.80;;;;;;4779548;29;20362;-84
2024/01/16 02:08:20;;;;;;;2.45;0.70;;;16.70;56.60;;;;;;4787561;29;20163;-84
2024/01/16 02:10:55;;;;;;;3.53;0.70;;;16.70;56.80;;;;;;4787322;29;20187;-84
2024/01/16 02:13:25;;;;;;;2.50;0.80;;;16.70;56.70;;;;;;4787759;29;20621;-84
2024/01/16 02:15:58;;;;;;;2.38;0.63;;;16.60;56.80;;;;;;4802534;29;20195;-85
2024/01/16 02:18:28;;;;;;;4.10;0.88;;;16.70;56.90;;;;;;4757608;30;20184;-85
2024/01/16 02:21:00;;;;;;;3.75;0.90;;;16.70;56.90;;;;;;4784079;29;20192;-85
2024/01/16 02:23:28;;;;;;;2.08;0.63;;;16.60;56.80;;;;;;4766538;30;20230;-84
2024/01/16 02:25:59;;;;;;;2.17;0.90;;;16.60;56.60;;;;;;4771716;29;20191;-84
2024/01/16 02:28:30;;;;;;;4.50;1.17;;;16.70;56.70;;;;;;4820669;29;20204;-84
2024/01/16 02:30:58;;;;;;;2.70;0.80;;;16.60;56.80;;;;;;4820490;29;20197;-84
2024/01/16 02:33:31;;;;;;;2.72;0.80;;;16.60;56.80;;;;;;4790086;29;20186;-84
2024/01/16 02:36:04;;;;;;;3.28;0.75;;;16.60;56.70;;;;;;4763580;29;20245;-85
2024/01/16 02:38:35;;;;;;;1.35;0.65;;;16.60;56.90;;;;;;4776467;30;20267;-84
2024/01/16 02:41:03;;;;;;;2.50;0.80;;;16.70;56.70;;;;;;4777094;29;20978;-84
2024/01/16 02:43:31;;;;;;;2.17;0.85;;;16.60;56.50;;;;;;4784123;30;20276;-84
2024/01/16 02:45:58;;;;;;;1.98;0.77;;;16.60;56.70;;;;;;4740853;30;20637;-84
2024/01/16 02:48:27;;;;;;;0.70;0.43;;;16.60;56.60;;;;;;4769073;30;20347;-85
2024/01/16 02:51:27;;;;;;;1.27;0.80;;;16.60;56.50;;;;;;4768248;30;20333;-86
2024/01/16 02:53:54;;;;;;;1.80;0.50;;;16.60;56.60;;;;;;4796029;30;20192;-85
2024/01/16 02:56:25;;;;;;;1.67;0.80;;;16.60;56.60;;;;;;4783114;30;20196;-84
2024/01/16 02:58:55;;;;;;;1.92;0.68;;;16.60;56.40;;;;;;4735883;30;20204;-85
2024/01/16 03:01:20;;;;;;;1.33;0.57;;;16.60;56.70;;;;;;4757218;30;20751;-85
2024/01/16 03:03:48;;;;;;;4.32;0.80;;;16.60;56.70;;;;;;4748676;30;20216;-85
2024/01/16 03:06:26;;;;;;;2.17;0.73;;;16.60;56.70;;;;;;4751760;30;20188;-85
2024/01/16 03:08:59;;;;;;;1.42;0.60;;;16.60;56.60;;;;;;4780991;30;20206;-84
2024/01/16 03:11:25;;;;;;;3.35;0.93;;;16.60;56.70;;;;;;4780449;30;20196;-85
2024/01/16 03:13:55;;;;;;;0.85;0.55;;;16.60;56.70;;;;;;4781030;30;20324;-84
2024/01/16 03:16:21;;;;;;;1.17;0.68;;;16.60;56.40;;;;;;4750517;30;20184;-85
2024/01/16 03:18:49;;;;;;;1.85;0.70;;;16.60;56.60;;;;;;4780523;30;20196;-85
2024/01/16 03:21:23;;;;;;;1.75;0.50;;;16.50;56.30;;;;;;4780316;29;20672;-85
2024/01/16 03:23:54;;;;;;;1.60;0.70;;;16.50;56.30;;;;;;4797832;29;20199;-85
2024/01/16 03:26:20;;;;;;;1.23;0.50;;;16.60;56.50;;;;;;4798208;30;20293;-85
2024/01/16 03:28:51;;;;;;;2.10;0.60;;;16.60;56.50;;;;;;4783697;30;20187;-85
2024/01/16 03:31:24;;;;;;;1.48;0.75;;;16.60;56.60;;;;;;4784653;30;20175;-85
2024/01/16 03:33:54;;;;;;;1.58;0.70;;;16.50;56.40;;;;;;4783903;30;20213;-86
2024/01/16 03:36:24;;;;;;;1.25;0.60;;;16.50;56.50;;;;;;4783271;30;20243;-85
2024/01/16 03:38:53;;;;;;;1.17;0.55;;;16.60;56.60;;;;;;4784377;30;20187;-85
2024/01/16 03:41:22;;;;;;;1.67;0.70;;;16.60;56.60;;;;;;4783228;30;20218;-85
2024/01/16 03:43:56;;;;;;;1.08;0.68;;;16.60;56.50;;;;;;4783316;30;20219;-85
2024/01/16 03:46:24;;;;;;;2.92;0.85;;;16.60;56.50;;;;;;4783756;30;20316;-85
2024/01/16 03:48:59;;;;;;;2.22;0.77;;;16.60;56.50;;;;;;4783815;29;20195;-85
2024/01/16 03:51:27;;;;;;;1.23;0.65;;;16.60;56.40;;;;;;4807134;29;20185;-85
2024/01/16 03:54:01;;;;;;;1.98;0.60;;;16.50;56.40;;;;;;4822697;29;20189;-86
2024/01/16 03:56:32;;;;;;;3.58;0.63;;;16.60;56.30;;;;;;4837884;29;20169;-85
2024/01/16 03:59:02;;;;;;;1.20;0.50;;;16.50;56.40;;;;;;4791588;29;20201;-85
2024/01/16 04:01:32;;;;;;;2.45;0.70;;;16.60;56.30;;;;;;4805184;29;20227;-85
2024/01/16 04:03:58;;;;;;;2.38;0.80;;;16.60;56.30;;;;;;4813712;29;20177;-85
2024/01/16 04:06:27;;;;;;;1.50;0.73;;;16.50;56.40;;;;;;4852063;29;20162;-85
2024/01/16 04:08:53;;;;;;;1.30;0.70;;;16.50;56.40;;;;;;4853397;29;20173;-85
2024/01/16 04:11:23;;;;;;;1.33;0.60;;;16.50;56.30;;;;;;4857061;29;20248;-85
2024/01/16 04:13:54;;;;;;;1.73;0.68;;;16.60;56.90;;;;;;4796258;29;20231;-85
2024/01/16 04:16:21;;;;;;;3.63;0.80;;;16.60;56.20;;;;;;4858177;29;20181;-83
2024/01/16 04:18:49;;;;;;;1.17;0.65;;;16.50;56.20;;;;;;4857234;29;20244;-87
2024/01/16 04:21:24;;;;;;;3.08;0.80;;;16.50;56.20;;;;;;4841526;29;20170;-85
2024/01/16 04:23:52;;;;;;;1.20;0.57;;;16.50;56.20;;;;;;4856357;29;20244;-85
2024/01/16 04:26:21;;;;;;;5.05;1.00;;;16.50;56.40;;;;;;4827014;29;20172;-85
2024/01/16 04:28:47;;;;;;;0.70;0.70;;;16.50;56.20;;;;;;4827737;29;20173;-84
2024/01/16 04:31:16;;;;;;;1.38;0.70;;;16.50;56.10;;;;;;4842008;29;20157;-85
2024/01/16 04:33:46;;;;;;;1.92;0.60;;;16.50;56.20;;;;;;4827958;29;20181;-86
2024/01/16 04:36:15;;;;;;;0.75;0.60;;;16.50;56.00;;;;;;4845227;29;20280;-85
2024/01/16 04:38:45;;;;;;;1.70;0.70;;;16.50;56.10;;;;;;4844252;29;20186;-84
2024/01/16 04:41:11;;;;;;;1.48;0.65;;;16.50;56.30;;;;;;4827407;29;20184;-84
2024/01/16 04:43:39;;;;;;;1.65;0.70;;;16.50;56.20;;;;;;4826478;29;20241;-85
2024/01/16 04:46:07;;;;;;;1.13;0.50;;;16.50;56.00;;;;;;4826738;29;20230;-85
2024/01/16 04:48:37;;;;;;;0.57;0.50;;;16.50;56.10;;;;;;4841720;29;20221;-84
2024/01/16 04:51:04;;;;;;;0.80;0.68;;;16.50;56.00;;;;;;4794839;29;20264;-84
2024/01/16 04:53:40;;;;;;;1.48;0.77;;;16.50;55.80;;;;;;4841315;29;20192;-84
2024/01/16 04:56:06;;;;;;;1.67;0.70;;;16.50;56.00;;;;;;4826781;29;20576;-83
2024/01/16 04:58:33;;;;;;;2.38;0.90;;;16.50;56.00;;;;;;4831755;29;20237;-84
2024/01/16 05:01:00;;;;;;;3.25;0.70;;;16.50;56.00;;;;;;4829418;29;20271;-84
2024/01/16 05:03:28;;;;;;;3.97;0.60;;;16.40;55.80;;;;;;4828816;29;20197;-84
2024/01/16 05:05:55;;;;;;;1.73;0.65;;;16.50;55.90;;;;;;4822508;29;20185;-85
2024/01/16 05:08:24;;;;;;;1.58;0.63;;;16.50;55.90;;;;;;4826037;29;20180;-85
2024/01/16 05:10:51;;;;;;;1.02;0.65;;;16.50;55.70;;;;;;4825448;29;20189;-85
2024/01/16 05:13:16;;;;;;;2.15;0.75;;;16.50;55.80;;;;;;4974307;24;20239;-85
2024/01/16 05:15:42;;;;;;;2.13;0.70;;;16.50;55.80;;;;;;4847798;29;20258;-86
2024/01/16 05:18:12;;;;;;;0.85;0.45;;;16.50;55.70;;;;;;4876943;29;20168;-85
2024/01/16 05:20:44;;;;;;;1.38;0.60;;;16.50;56.50;;;;;;4845658;29;20263;-85
2024/01/16 05:23:13;;;;;;;1.90;0.70;;;16.40;55.80;;;;;;4830674;29;20232;-84
2024/01/16 05:25:40;;;;;;;1.52;0.40;;;16.50;55.90;;;;;;4862126;29;20192;-84
2024/01/16 05:28:06;;;;;;;1.52;0.88;;;16.50;55.60;;;;;;4854337;29;20197;-86
2024/01/16 05:30:33;;;;;;;2.35;0.60;;;16.50;55.70;;;;;;4824404;29;20193;-84
2024/01/16 05:33:07;;;;;;;2.38;0.65;;;16.50;55.70;;;;;;4824455;29;20207;-84
2024/01/16 05:35:38;;;;;;;2.40;0.60;;;16.50;55.70;;;;;;4794648;29;20192;-85
2024/01/16 05:38:08;;;;;;;1.60;0.50;;;16.40;55.60;;;;;;4793990;29;20196;-85
2024/01/16 05:40:37;;;;;;;1.77;0.68;;;16.50;55.50;;;;;;4827377;29;20637;-85
2024/01/16 05:43:10;;;;;;;0.88;0.63;;;16.50;55.70;;;;;;4806620;29;20229;-84
2024/01/16 05:45:40;;;;;;;0.85;0.40;;;16.40;55.60;;;;;;4805853;29;20238;-84
2024/01/16 05:48:10;;;;;;;1.13;0.70;;;16.40;55.70;;;;;;4790593;29;20273;-84
2024/01/16 05:50:36;;;;;;;1.15;0.50;;;16.40;55.40;;;;;;4820789;29;20192;-84
2024/01/16 05:53:04;;;;;;;2.22;0.55;;;16.50;55.50;;;;;;4823882;29;20257;-84
2024/01/16 05:55:32;;;;;;;0.77;0.50;;;16.40;55.40;;;;;;4805576;29;20666;-84
2024/01/16 05:58:00;;;;;;;1.10;0.60;;;16.40;55.60;;;;;;4806111;29;20206;-84
2024/01/16 06:00:25;;;;;;;0.85;0.60;;;16.40;55.50;;;;;;4820934;29;20178;-84
2024/01/16 06:02:52;;;;;;;1.67;0.60;;;16.50;55.40;;;;;;4832180;29;20218;-84
2024/01/16 06:05:19;;;;;;;1.58;0.60;;;16.40;55.40;;;;;;4840179;29;20267;-83
2024/01/16 06:07:53;;;;;;;1.63;0.57;;;16.40;55.70;;;;;;4841365;29;21216;-85
2024/01/16 06:10:20;;;;;;;1.23;0.70;;;16.40;55.50;;;;;;4840683;29;20185;-84
2024/01/16 06:12:46;;;;;;;1.38;0.60;;;16.40;55.30;;;;;;4822637;29;20333;-83
2024/01/16 06:15:21;;;;;;;0.95;0.68;;;16.40;55.30;;;;;;4823172;29;20197;-84
2024/01/16 06:17:51;;;;;;;0.93;0.60;;;16.40;55.30;;;;;;4854523;29;20174;-84
2024/01/16 06:20:20;;;;;;;1.35;0.60;;;16.40;55.30;;;;;;4855869;29;20205;-83
2024/01/16 06:23:01;;;;;;;0.93;0.45;;;16.40;55.20;;;;;;4840198;29;20239;-83
2024/01/16 06:25:39;;;;;;;1.40;0.70;;;16.40;55.50;;;;;;4825597;29;20158;-83
2024/01/16 06:28:05;;;;;;;1.30;0.77;;;16.30;55.60;;;;;;4839231;29;20186;-84
2024/01/16 06:30:34;;;;;;;1.88;0.80;;;16.30;55.40;;;;;;4828399;29;20240;-84
2024/01/16 06:33:09;;;;;;;1.08;0.60;;;16.40;55.10;;;;;;4819928;29;20293;-84
2024/01/16 06:35:43;;;;;;;1.13;0.63;;;16.40;55.30;;;;;;4767703;30;20222;-85
2024/01/16 06:38:15;;;;;;;1.55;0.60;;;16.40;55.00;;;;;;4767244;30;20189;-84
2024/01/16 06:40:42;;;;;;;1.23;0.63;;;16.50;54.80;;;;;;4764133;30;20244;-84
2024/01/16 06:43:18;;;;;;;1.10;0.60;;;16.60;54.80;;;;;;4748980;30;20228;-85
2024/01/16 06:45:47;;;;;;;1.70;0.63;;;16.60;54.80;;;;;;4735988;30;20188;-84
2024/01/16 06:48:15;;;;;;;0.57;0.50;;;16.60;54.80;;;;;;4748076;30;20195;-85
2024/01/16 06:50:53;;;;;;;1.05;0.70;;;16.60;54.80;;;;;;4733471;30;20208;-84
2024/01/16 06:53:21;;;;;;;1.85;0.60;;;16.60;54.80;;;;;;4732081;30;20746;-84
2024/01/16 06:55:53;;;;;;;2.15;0.60;;;16.60;54.80;;;;;;4731311;30;20197;-84
2024/01/16 06:58:21;;;;;;;2.28;0.70;;;16.60;54.90;;;;;;4748194;30;20213;-84
2024/01/16 07:00:54;;;;;;;1.45;0.70;;;16.60;54.70;;;;;;4736655;30;20196;-84
2024/01/16 07:03:20;;;;;;;2.20;0.60;;;16.60;55.30;;;;;;4728438;30;20221;-85
2024/01/16 07:05:49;;;;;;;1.65;0.70;;;16.60;54.70;;;;;;4742332;30;20191;-83
2024/01/16 07:08:21;;;;;;;1.90;0.60;;;16.70;54.70;;;;;;4783173;30;20290;-83
2024/01/16 07:10:49;;;;;;;1.25;0.47;;;16.60;54.20;;;;;;4790355;29;20866;-84
2024/01/16 07:13:17;;;;;;;1.25;0.60;;;16.70;54.20;;;;;;4821162;29;20337;-84
2024/01/16 07:15:43;;;;;;;1.42;0.77;;;16.80;54.10;;;;;;4817581;29;20229;-85
2024/01/16 07:18:15;;;;;;;0.80;0.50;;;16.70;53.70;;;;;;4784944;30;20237;-84
2024/01/16 07:20:41;;;;;;;1.08;0.60;;;16.80;53.30;;;;;;4799284;29;20665;-85
2024/01/16 07:23:12;;;;;;;0.77;0.50;;;16.80;52.60;;;;;;4802420;30;20239;-84
2024/01/16 07:25:43;;;;;;;1.30;0.75;;;16.80;52.90;;;;;;4787678;30;20206;-85
2024/01/16 07:28:15;;;;;;;0.70;0.50;;;16.90;53.60;;;;;;4803046;30;20215;-84
2024/01/16 07:30:43;;;;;;;4.07;0.60;;;16.80;52.90;;;;;;4801123;29;20331;-85
2024/01/16 07:33:08;;;;;;;1.23;0.50;;;16.80;52.90;;;;;;4788406;30;20202;-84
2024/01/16 07:35:43;;;;;;;1.27;0.43;;;16.90;53.00;;;;;;4787076;30;20183;-84
2024/01/16 07:38:09;;;;;;;0.77;0.55;;;16.80;52.80;;;;;;4770502;30;20207;-84
2024/01/16 07:40:36;;;;;;;1.60;0.80;;;16.80;52.90;;;;;;4784565;30;20183;-84
2024/01/16 07:43:07;;;;;;;1.60;0.47;;;16.80;52.30;;;;;;4788271;29;20254;-84
2024/01/16 07:45:40;;;;;;;1.08;0.73;;;16.80;53.00;;;;;;4789542;30;20187;-85
2024/01/16 07:48:10;;;;;;;1.75;0.40;;;16.90;53.30;;;;;;4832236;29;20197;-84
2024/01/16 07:50:37;;;;;;;0.90;0.57;;;16.90;52.70;;;;;;4823896;29;20194;-85
2024/01/16 07:53:23;;;;;;;2.25;0.60;;;16.80;52.90;;;;;;4841839;29;20203;-85
2024/01/16 07:55:52;;;;;;;1.15;0.55;;;16.80;52.50;;;;;;4866288;29;20197;-84
2024/01/16 07:58:29;;;;;;;0.45;0.40;;;16.90;52.30;;;;;;4894126;29;20188;-85
2024/01/16 08:01:17;;;;;;;1.30;0.50;;;16.80;52.30;;;;;;4832495;29;20202;-84
2024/01/16 08:03:57;;;;;;;1.10;0.52;;;17.00;52.10;;;;;;4822189;29;20379;-85
2024/01/16 08:06:31;;;;;;;1.95;0.57;;;16.90;52.10;;;;;;4799770;30;20233;-83
2024/01/16 08:09:03;;;;;;;2.03;0.68;;;16.90;52.20;;;;;;4786518;29;20183;-84
2024/01/16 08:11:35;;;;;;;1.83;0.65;;;17.00;52.10;;;;;;4751714;30;20196;-84
2024/01/16 08:14:03;;;;;;;1.23;0.45;;;17.00;51.60;;;;;;4735543;30;20224;-84
2024/01/16 08:16:31;;;;;;;2.67;0.70;;;17.00;51.60;;;;;;4749871;30;20224;-84
2024/01/16 08:19:00;;;;;;;0.50;0.50;;;16.90;52.20;;;;;;4750226;30;20188;-84
2024/01/16 08:21:27;;;;;;;1.00;0.43;;;16.90;51.90;;;;;;4755781;30;20208;-83
2024/01/16 08:24:03;;;;;;;1.13;0.60;;;16.90;51.60;;;;;;4757850;30;20731;-83
2024/01/16 08:26:47;;;;;;;0.50;0.40;;;17.00;51.50;;;;;;4750658;30;20310;-84
2024/01/16 08:29:29;;;;;;;1.58;0.77;;;17.00;51.80;;;;;;4781141;29;20274;-84
2024/01/16 08:32:21;;;;;;;0.75;0.40;;;16.90;51.90;;;;;;4824910;29;20225;-83
2024/01/16 08:34:54;;;;;;;1.98;0.70;;;16.90;52.20;;;;;;4808748;29;20189;-84
2024/01/16 08:37:32;;;;;;;0.50;0.50;;;16.80;51.70;;;;;;4826461;29;20186;-83
2024/01/16 08:40:04;;;;;;;0.70;0.50;;;16.90;52.00;;;;;;4825239;29;20212;-85
2024/01/16 08:42:30;;;;;;;0.60;0.60;;;16.90;51.20;;;;;;4819571;29;20208;-84
2024/01/16 08:45:06;;;;;;;1.02;0.60;;;16.90;51.80;;;;;;4824912;29;20166;-84
2024/01/16 08:47:35;;;;;;;0.88;0.50;;;16.90;51.90;;;;;;4834314;29;20186;-84
2024/01/16 08:50:11;;;;;;;0.80;0.50;;;17.00;52.10;;;;;;4817636;29;20182;-83
2024/01/16 08:52:39;;;;;;;1.20;0.50;;;17.00;52.20;;;;;;4804753;29;20177;-83
2024/01/16 08:55:10;;;;;;;0.82;0.47;;;17.00;51.90;;;;;;4822347;29;20200;-83
2024/01/16 08:58:06;;;;;;;0.77;0.50;;;17.00;52.20;;;;;;4867134;29;20233;-84
2024/01/16 09:00:33;;;;;;;2.05;0.50;;;16.90;51.90;;;;;;4845761;29;20182;-84
2024/01/16 09:03:27;;;;;;;1.70;0.60;;;17.00;51.40;;;;;;4845123;29;20303;-84
2024/01/16 09:06:02;;;;;;;1.25;0.47;;;16.90;52.50;;;;;;4833119;29;20185;-84
2024/01/16 09:08:29;;;;;;;0.50;0.40;;;17.00;51.60;;;;;;4831972;29;20196;-84
2024/01/16 09:11:08;;;;;;;1.65;0.40;;;17.00;51.10;;;;;;4828236;29;20193;-84
2024/01/16 09:13:51;;;;;;;0.88;0.40;;;17.00;52.10;;;;;;4812187;29;20257;-84
2024/01/16 09:16:22;;;;;;;1.83;0.50;;;17.00;50.90;;;;;;4830143;29;20210;-84
2024/01/16 09:18:54;;;;;;;1.17;0.45;;;17.10;50.30;;;;;;4792176;30;20195;-83
2024/01/16 09:21:34;;;;;;;1.08;0.55;;;17.20;51.00;;;;;;4793062;30;20191;-84
2024/01/16 09:24:12;;;;;;;1.30;0.40;;;17.20;50.60;;;;;;4794729;30;20215;-84
2024/01/16 09:26:48;;;;;;;2.78;0.47;;;17.20;50.50;;;;;;4796944;30;20206;-85
2024/01/16 09:29:20;;;;;;;1.65;0.40;;;17.20;50.70;;;;;;4797056;29;20195;-85
2024/01/16 09:32:28;;;;;;;2.50;0.57;;;17.20;50.10;;;;;;4813200;29;20179;-85
2024/01/16 09:35:02;;;;;;;0.47;0.43;;;17.20;50.60;;;;;;4823438;29;20182;-84
2024/01/16 09:37:41;;;;;;;0.73;0.40;;;17.20;50.70;;;;;;4811410;29;20194;-84
2024/01/16 09:40:16;;;;;;;1.90;0.50;;;17.20;50.80;;;;;;4795102;30;20191;-84
2024/01/16 09:46:05;;;;;;;;;;;;;;;;;;;;;
2024/01/16 09:48:51;;;;;;;2.33;0.60;;;17.20;51.00;;;;;;4809805;29;20187;-84
2024/01/16 09:51:28;;;;;;;0.70;0.43;;;17.20;50.30;;;;;;4771862;30;20208;-85
2024/01/16 09:54:01;;;;;;;5.35;0.70;;;17.30;50.30;;;;;;4786347;30;20200;-84
2024/01/16 09:56:41;;;;;;;1.77;0.40;;;17.30;51.60;;;;;;4774782;30;20199;-84
2024/01/16 09:59:12;;;;;;;2.47;0.50;;;17.30;50.30;;;;;;4788002;30;20212;-83
2024/01/16 10:01:43;;;;;;;1.50;0.60;;;17.30;52.20;;;;;;4787829;30;20319;-85
2024/01/16 10:04:19;;;;;;;2.45;0.60;;;17.20;52.00;;;;;;4756894;30;20204;-84
2024/01/16 10:06:47;;;;;;;2.78;0.70;;;17.30;51.10;;;;;;4770687;30;20291;-84
2024/01/16 10:09:15;;;;;;;0.65;0.35;;;17.40;50.50;;;;;;4787393;30;20189;-83
2024/01/16 10:12:02;;;;;;;1.92;0.52;;;17.30;50.30;;;;;;4772478;30;20169;-84
2024/01/16 10:14:29;;;;;;;0.75;0.50;;;17.40;51.00;;;;;;4788163;29;20225;-84
2024/01/16 10:17:05;;;;;;;0.90;0.50;;;17.30;51.10;;;;;;4765515;29;20219;-84
2024/01/16 10:19:56;;;;;;;1.30;0.63;;;17.30;51.30;;;;;;4766006;30;20181;-84
2024/01/16 10:22:26;;;;;;;2.03;0.60;;;17.20;51.10;;;;;;4753290;30;20233;-83
2024/01/16 10:25:16;;;;;;;2.63;0.40;;;17.30;50.20;;;;;;4788012;30;20210;-84
2024/01/16 10:27:45;;;;;;;2.70;0.40;;;17.40;51.00;;;;;;4771329;30;20210;-85
2024/01/16 10:30:18;;;;;;;0.57;0.40;;;17.40;50.40;;;;;;4772988;29;20196;-84
2024/01/16 10:33:16;;;;;;;1.42;0.50;;;17.50;48.40;;;;;;4763209;29;20191;-85
2024/01/16 10:35:46;;;;;;;0.77;0.50;;;17.40;50.00;;;;;;4788797;29;20190;-85
2024/01/16 10:38:24;;;;;;;0.45;0.40;;;17.40;50.80;;;;;;4791898;29;20179;-85
2024/01/16 10:41:05;;;;;;;3.17;0.50;;;17.50;50.00;;;;;;4811247;29;20194;-85
2024/01/16 10:43:33;;;;;;;1.38;0.45;;;17.30;51.00;;;;;;4800744;29;20233;-85
2024/01/16 10:46:12;;;;;;;0.50;0.43;;;17.50;49.80;;;;;;4807448;29;20218;-85
2024/01/16 10:48:43;;;;;;;1.10;0.47;;;17.40;49.30;;;;;;4771356;30;20200;-85
2024/01/16 10:51:15;;;;;;;2.95;0.50;;;17.40;49.90;;;;;;4734932;30;20574;-84
2024/01/16 10:53:43;;;;;;;0.80;0.40;;;17.40;50.70;;;;;;4750395;30;20215;-85
2024/01/16 10:56:11;;;;;;;0.88;0.45;;;17.40;49.10;;;;;;4719170;30;20205;-85
2024/01/16 10:58:43;;;;;;;1.05;0.40;;;17.40;50.20;;;;;;4751617;30;20189;-85
2024/01/16 11:01:17;;;;;;;0.63;0.40;;;17.40;50.60;;;;;;4750300;30;20202;-84
2024/01/16 11:03:49;;;;;;;0.40;0.40;;;17.30;50.80;;;;;;4762391;30;20235;-85
2024/01/16 11:06:17;;;;;;;0.52;0.40;;;17.30;50.70;;;;;;4749474;30;20232;-86
2024/01/16 11:08:47;;;;;;;0.85;0.35;;;17.30;51.20;;;;;;4769043;30;20184;-87
2024/01/16 11:11:14;;;;;;;1.58;0.65;;;17.30;50.30;;;;;;4742270;30;20311;-85
2024/01/16 11:13:44;;;;;;;1.23;0.55;;;17.40;50.40;;;;;;4747776;30;20224;-84
2024/01/16 11:16:14;;;;;;;0.55;0.40;;;17.30;50.80;;;;;;4766555;30;20196;-84
2024/01/16 11:18:39;;;;;;;0.60;0.40;;;17.30;50.70;;;;;;4766360;30;20229;-85
2024/01/16 11:21:10;;;;;;;0.40;0.40;;;17.30;51.10;;;;;;4799712;30;20187;-84
2024/01/16 11:23:37;;;;;;;0.50;0.50;;;17.30;50.80;;;;;;4828155;29;20261;-84
2024/01/16 11:26:32;;;;;;;0.80;0.50;;;17.30;51.70;;;;;;4838859;29;20224;-85
2024/01/16 11:29:00;;;;;;;0.80;0.50;;;17.30;51.40;;;;;;4847783;29;20199;-84
2024/01/16 11:31:31;;;;;;;0.70;0.40;;;17.30;51.40;;;;;;4859315;29;20254;-85
2024/01/16 11:33:59;;;;;;;0.85;0.35;;;17.30;51.00;;;;;;4838259;29;20189;-85
2024/01/16 11:36:54;;;;;;;1.05;0.50;;;17.30;50.40;;;;;;4837002;29;20249;-85
2024/01/16 11:39:22;;;;;;;1.05;0.50;;;17.40;49.80;;;;;;4838987;29;20190;-85
2024/01/16 11:41:53;;;;;;;0.90;0.50;;;17.50;50.30;;;;;;4809007;29;20186;-84
2024/01/16 11:44:47;;;;;;;1.73;0.40;;;17.40;50.20;;;;;;4787461;29;20201;-82
2024/01/16 11:47:25;;;;;;;1.33;0.47;;;17.50;50.50;;;;;;4818424;29;20327;-84
2024/01/16 11:50:29;;;;;;;0.40;0.40;;;17.40;49.60;;;;;;4793787;29;20185;-85
2024/01/16 11:53:12;;;;;;;1.08;0.32;;;17.40;50.30;;;;;;4795056;29;20198;-85
2024/01/16 12:03:30;;;;;;;0.65;0.40;;;17.40;50.30;;;;;;3231093;23;20837;-87
2024/01/16 12:16:59;;;;;;;1.52;0.50;;;17.30;50.50;;;;;;5273014;23;20244;-84
2024/01/16 12:19:44;;;;;;;0.90;0.35;;;17.40;50.70;;;;;;4822345;29;20190;-85
2024/01/16 12:22:30;;;;;;;1.23;0.30;;;17.30;50.20;;;;;;4804581;29;20222;-85
2024/01/16 12:25:32;;;;;;;0.75;0.40;;;17.30;50.80;;;;;;4828411;29;20186;-86
2024/01/16 12:28:24;;;;;;;1.33;0.38;;;17.30;50.30;;;;;;4785638;30;20372;-86
2024/01/16 12:31:41;;;;;;;0.98;0.30;;;17.40;50.40;;;;;;4826710;29;20175;-85
2024/01/16 12:34:17;;;;;;;1.08;0.50;;;17.40;50.40;;;;;;4847367;29;20206;-86
2024/01/16 12:36:47;;;;;;;0.52;0.30;;;17.40;49.90;;;;;;4807185;29;20190;-84
2024/01/16 12:39:41;;;;;;;0.95;0.50;;;17.40;49.90;;;;;;4802789;30;20577;-85
2024/01/16 12:42:26;;;;;;;1.23;0.38;;;17.40;51.00;;;;;;4782115;30;20258;-84
2024/01/16 12:44:56;;;;;;;2.50;0.50;;;17.40;49.60;;;;;;4759322;30;20755;-84
2024/01/16 12:47:25;;;;;;;0.68;0.40;;;17.40;50.60;;;;;;4758624;30;20188;-84
2024/01/16 12:50:30;;;;;;;1.25;0.50;;;17.30;50.30;;;;;;4758635;30;20231;-86
2024/01/16 12:53:09;;;;;;;0.40;0.38;;;17.30;50.10;;;;;;4782136;30;20203;-85
2024/01/16 12:55:43;;;;;;;1.40;0.50;;;17.30;50.30;;;;;;4810781;29;20207;-87
2024/01/16 12:58:35;;;;;;;0.40;0.40;;;17.40;50.10;;;;;;4762012;30;20239;-85
2024/01/16 13:08:47;;;;;;;0.52;0.40;;;17.40;50.00;;;;;;4714970;30;20233;-86
2024/01/16 13:11:54;;;;;;;0.93;0.30;;;17.40;50.00;;;;;;4689821;30;20259;-85
2024/01/16 13:14:30;;;;;;;0.30;0.30;;;17.40;49.90;;;;;;4698665;30;20206;-85
2024/01/16 13:17:38;;;;;;;0.60;0.40;;;17.40;49.80;;;;;;4714211;30;20636;-85
2024/01/16 13:20:25;;;;;;;0.52;0.50;;;17.40;50.00;;;;;;4697497;30;20282;-86
2024/01/16 13:22:51;;;;;;;0.50;0.47;;;17.30;50.20;;;;;;4711167;30;20252;-85
2024/01/16 13:25:39;;;;;;;2.08;0.32;;;17.40;49.90;;;;;;4730159;30;20193;-86
2024/01/16 13:28:44;;;;;;;2.20;0.40;;;17.40;50.20;;;;;;4648736;30;20369;-86
2024/01/16 13:31:16;;;;;;;0.40;0.40;;;17.30;49.60;;;;;;4641833;30;20197;-85
2024/01/16 13:33:48;;;;;;;0.32;0.32;;;17.30;50.50;;;;;;4646194;31;20198;-86
2024/01/16 13:36:16;;;;;;;0.40;0.30;;;17.30;50.00;;;;;;4663724;30;20199;-84
2024/01/16 13:38:42;;;;;;;0.50;0.38;;;17.30;49.90;;;;;;4648124;30;20272;-85
2024/01/16 13:41:19;;;;;;;0.82;0.50;;;17.40;49.30;;;;;;4642462;30;20609;-85
2024/01/16 13:43:44;;;;;;;0.60;0.40;;;17.40;50.20;;;;;;4682141;30;20235;-83
2024/01/16 13:46:10;;;;;;;0.32;0.32;;;17.30;49.30;;;;;;4681878;30;20203;-85